createdAt,value
2022-11-27T00:01:58.903Z,102454.59
2022-11-27T00:04:26.732Z,102457.97
2022-11-27T00:06:54.472Z,102460.97
2022-11-27T00:09:22.363Z,102456.44
2022-11-27T00:11:50.123Z,102444.16
2022-11-27T00:14:19.210Z,102435.00
2022-11-27T00:16:46.867Z,102442.72
2022-11-27T00:19:14.526Z,102437.06
2022-11-27T00:21:42.246Z,102424.59
2022-11-27T00:24:11.083Z,102432.56
2022-11-27T00:26:38.849Z,102434.94
2022-11-27T00:29:07.105Z,102444.91
2022-11-27T00:31:37.543Z,102436.25
2022-11-27T00:34:06.336Z,102446.91
2022-11-27T00:36:35.378Z,102449.22
2022-11-27T00:39:03.609Z,102445.84
2022-11-27T00:41:31.810Z,102442.72
2022-11-27T00:43:59.595Z,102436.31
2022-11-27T00:46:29.342Z,102439.13
2022-11-27T00:48:58.787Z,102441.19
2022-11-27T00:51:27.130Z,102443.41
2022-11-27T00:53:55.554Z,102440.75
2022-11-27T00:56:24.851Z,102447.41
2022-11-27T00:58:53.030Z,102441.53
2022-11-27T01:01:22.022Z,102443.19
2022-11-27T01:03:50.165Z,102442.09
2022-11-27T01:06:19.959Z,102421.50
2022-11-27T01:08:48.230Z,102421.50
2022-11-27T01:11:16.640Z,102414.75
2022-11-27T01:13:44.469Z,102418.00
2022-11-27T01:16:13.734Z,102414.75
2022-11-27T01:18:42.412Z,102409.56
2022-11-27T01:21:10.664Z,102403.91
2022-11-27T01:23:39.856Z,102401.31
2022-11-27T01:26:08.443Z,102406.28
2022-11-27T01:28:38.571Z,102401.19
2022-11-27T01:31:07.753Z,102407.69
2022-11-27T01:33:35.576Z,102402.72
2022-11-27T01:36:04.898Z,102394.28
2022-11-27T01:38:33.514Z,102397.19
2022-11-27T01:41:05.620Z,102396.22
2022-11-27T01:43:38.201Z,102396.44
2022-11-27T01:46:06.817Z,102394.25
2022-11-27T01:48:34.561Z,102394.94
2022-11-27T01:51:02.263Z,102384.28
2022-11-27T01:53:30.122Z,102381.88
2022-11-27T01:56:01.547Z,102383.50
2022-11-27T01:58:31.425Z,102384.81
2022-11-27T02:00:59.492Z,102372.22
2022-11-27T02:03:27.248Z,102371.28
2022-11-27T02:05:55.081Z,102372.69
2022-11-27T02:08:22.949Z,102374.94
2022-11-27T02:10:52.163Z,102364.97
2022-11-27T02:13:23.409Z,102361.38
2022-11-27T02:15:57.468Z,102358.34
2022-11-27T02:18:30.237Z,102354.22
2022-11-27T02:21:01.655Z,102352.81
2022-11-27T02:23:48.226Z,102336.25
2022-11-27T02:26:26.243Z,102327.13
2022-11-27T02:28:58.119Z,102325.72
2022-11-27T02:31:28.547Z,102331.81
2022-11-27T02:33:59.772Z,102340.44
2022-11-27T02:36:31.071Z,102334.63
2022-11-27T02:39:01.624Z,102329.63
2022-11-27T02:41:30.851Z,102332.78
2022-11-27T02:44:01.624Z,102319.44
2022-11-27T02:46:29.766Z,102314.44
2022-11-27T02:48:58.940Z,102324.41
2022-11-27T02:51:29.520Z,102312.69
2022-11-27T02:53:59.037Z,102299.22
2022-11-27T02:56:29.273Z,102305.19
2022-11-27T02:58:58.368Z,102294.53
2022-11-27T03:01:29.359Z,102299.44
2022-11-27T03:03:58.343Z,102297.56
2022-11-27T03:06:30.190Z,102288.97
2022-11-27T03:08:59.349Z,102287.53
2022-11-27T03:11:30.732Z,102283.53
2022-11-27T03:14:00.722Z,102275.13
2022-11-27T03:16:39.888Z,102267.94
2022-11-27T03:19:12.828Z,102267.97
2022-11-27T03:21:42.280Z,102263.56
2022-11-27T03:24:10.925Z,102262.53
2022-11-27T03:26:39.377Z,102271.03
2022-11-27T03:29:08.911Z,102271.78
2022-11-27T03:31:38.481Z,102272.97
2022-11-27T03:34:06.740Z,102268.19
2022-11-27T03:36:34.490Z,102271.78
2022-11-27T03:39:02.304Z,102262.31
2022-11-27T03:41:35.513Z,102259.19
2022-11-27T03:44:10.996Z,102268.44
2022-11-27T03:46:47.450Z,102266.06
2022-11-27T03:49:22.465Z,102265.03
2022-11-27T03:51:54.020Z,102248.19
2022-11-27T03:54:27.620Z,102235.72
2022-11-27T03:56:59.089Z,102243.31
2022-11-27T03:59:28.497Z,102233.03
2022-11-27T04:01:58.028Z,102229.50
2022-11-27T04:04:27.729Z,102222.63
2022-11-27T04:06:55.621Z,102225.94
2022-11-27T04:09:23.435Z,102219.84
2022-11-27T04:11:51.244Z,102232.53
2022-11-27T04:14:18.998Z,102231.09
2022-11-27T04:16:46.661Z,102238.50
2022-11-27T04:19:15.687Z,102218.09
2022-11-27T04:21:43.387Z,102224.66
2022-11-27T04:24:11.168Z,102228.84
2022-11-27T04:26:38.812Z,102226.22
2022-11-27T04:29:06.532Z,102215.38
2022-11-27T04:31:34.338Z,102221.06
2022-11-27T04:34:02.165Z,102221.44
2022-11-27T04:36:36.059Z,102218.88
2022-11-27T04:39:06.969Z,102220.41
2022-11-27T04:41:34.665Z,102222.69
2022-11-27T04:44:02.525Z,102216.75
2022-11-27T04:46:30.386Z,102217.22
2022-11-27T04:48:58.166Z,102224.47
2022-11-27T04:51:25.971Z,102236.44
2022-11-27T04:53:55.100Z,102233.34
2022-11-27T04:56:23.040Z,102216.66
2022-11-27T04:58:50.829Z,102220.72
2022-11-27T05:01:18.653Z,102228.06
2022-11-27T05:03:47.887Z,102236.06
2022-11-27T05:06:15.604Z,102228.56
2022-11-27T05:08:43.501Z,102225.38
2022-11-27T05:11:13.882Z,102222.41
2022-11-27T05:13:41.591Z,102221.84
2022-11-27T05:16:09.374Z,102220.91
2022-11-27T05:18:37.250Z,102202.66
2022-11-27T05:21:06.416Z,102204.16
2022-11-27T05:23:34.924Z,102187.41
2022-11-27T05:26:03.612Z,102193.94
2022-11-27T05:28:33.729Z,102197.81
2022-11-27T05:31:01.859Z,102188.13
2022-11-27T05:33:29.642Z,102185.47
2022-11-27T05:35:57.287Z,102177.09
2022-11-27T05:38:25.018Z,102175.75
2022-11-27T05:40:52.737Z,102176.03
2022-11-27T05:43:20.533Z,102176.69
2022-11-27T05:45:49.825Z,102180.94
2022-11-27T05:48:17.842Z,102178.84
2022-11-27T05:50:45.702Z,102181.97
2022-11-27T05:53:14.502Z,102172.66
2022-11-27T05:55:42.195Z,102171.09
2022-11-27T05:58:09.871Z,102176.84
2022-11-27T06:00:37.614Z,102175.09
2022-11-27T06:03:06.912Z,102168.72
2022-11-27T06:05:34.698Z,102167.75
2022-11-27T06:08:02.492Z,102156.75
2022-11-27T06:10:30.318Z,102167.88
2022-11-27T06:12:58.060Z,102178.25
2022-11-27T06:15:25.904Z,102165.91
2022-11-27T06:17:53.728Z,102139.28
2022-11-27T06:20:23.851Z,102154.59
2022-11-27T06:22:51.548Z,102153.09
2022-11-27T06:25:19.281Z,102168.06
2022-11-27T06:27:46.984Z,102168.19
2022-11-27T06:30:15.001Z,102151.75
2022-11-27T06:32:43.021Z,102164.25
2022-11-27T06:35:14.943Z,102156.09
2022-11-27T06:37:44.431Z,102158.59
2022-11-27T06:40:12.510Z,102165.22
2022-11-27T06:42:40.492Z,102166.63
2022-11-27T06:45:08.824Z,102142.78
2022-11-27T06:47:36.627Z,102147.88
2022-11-27T06:50:04.979Z,102146.34
2022-11-27T06:52:35.899Z,102137.91
2022-11-27T06:55:09.458Z,102135.06
2022-11-27T06:57:37.280Z,102141.69
2022-11-27T07:00:05.909Z,102135.41
2022-11-27T07:02:33.688Z,102138.06
2022-11-27T07:05:01.537Z,102136.56
2022-11-27T07:07:29.421Z,102132.56
2022-11-27T07:09:57.596Z,102143.09
2022-11-27T07:12:27.026Z,102137.22
2022-11-27T07:14:54.870Z,102146.66
2022-11-27T07:17:22.510Z,102153.28
2022-11-27T07:19:50.285Z,102153.16
2022-11-27T07:22:18.099Z,102144.28
2022-11-27T07:24:45.840Z,102147.75
2022-11-27T07:27:13.568Z,102138.53
2022-11-27T07:29:42.947Z,102129.28
2022-11-27T07:32:10.731Z,102127.78
2022-11-27T07:34:38.777Z,102126.69
2022-11-27T07:37:06.810Z,102120.53
2022-11-27T07:40:00.712Z,102117.25
2022-11-27T07:42:37.502Z,102120.38
2022-11-27T07:45:08.061Z,102104.97
2022-11-27T07:47:35.802Z,102098.94
2022-11-27T07:50:03.787Z,102092.78
2022-11-27T07:52:32.304Z,102090.63
2022-11-27T07:55:02.214Z,102095.66
2022-11-27T07:57:30.052Z,102096.31
2022-11-27T07:59:57.901Z,102081.31
2022-11-27T08:02:26.951Z,102080.84
2022-11-27T08:04:54.667Z,102079.66
2022-11-27T08:07:27.337Z,102073.59
2022-11-27T08:09:55.319Z,102071.34
2022-11-27T08:12:24.807Z,102077.34
2022-11-27T08:14:52.690Z,102086.81
2022-11-27T08:17:20.432Z,102081.63
2022-11-27T08:19:49.529Z,102083.94
2022-11-27T08:22:19.611Z,102093.19
2022-11-27T08:24:49.036Z,102093.69
2022-11-27T08:27:17.036Z,102094.94
2022-11-27T08:29:44.875Z,102086.25
2022-11-27T08:32:12.656Z,102087.22
2022-11-27T08:34:40.686Z,102092.06
2022-11-27T08:37:10.027Z,102090.03
2022-11-27T08:39:37.743Z,102086.69
2022-11-27T08:42:05.523Z,102084.91
2022-11-27T08:44:33.229Z,102085.06
2022-11-27T08:47:01.097Z,102087.03
2022-11-27T08:49:28.912Z,102083.41
2022-11-27T08:51:56.760Z,102081.84
2022-11-27T08:54:25.970Z,102066.63
2022-11-27T08:56:53.763Z,102061.94
2022-11-27T08:59:21.538Z,102059.69
2022-11-27T09:01:49.342Z,102060.25
2022-11-27T09:04:17.338Z,102058.66
2022-11-27T09:06:45.123Z,102067.91
2022-11-27T09:09:12.882Z,102057.94
2022-11-27T09:11:42.160Z,102065.84
2022-11-27T09:14:10.339Z,102079.38
2022-11-27T09:16:38.328Z,102071.50
2022-11-27T09:19:06.066Z,102078.75
2022-11-27T09:21:33.826Z,102071.28
2022-11-27T09:24:02.591Z,102076.25
2022-11-27T09:26:31.104Z,102079.19
2022-11-27T09:29:00.322Z,102080.34
2022-11-27T09:31:28.400Z,102086.09
2022-11-27T09:33:56.137Z,102084.81
2022-11-27T09:36:24.994Z,102082.84
2022-11-27T09:38:53.097Z,102083.56
2022-11-27T09:41:32.948Z,102085.59
2022-11-27T09:44:05.656Z,102082.44
2022-11-27T09:46:36.131Z,102077.63
2022-11-27T09:49:06.311Z,102078.13
2022-11-27T09:51:36.593Z,102077.44
2022-11-27T09:54:07.861Z,102078.06
2022-11-27T09:56:36.924Z,102076.72
2022-11-27T09:59:12.885Z,102068.00
2022-11-27T10:01:47.617Z,102072.81
2022-11-27T10:04:20.952Z,102069.47
2022-11-27T10:06:59.983Z,102068.88
2022-11-27T10:09:33.757Z,102068.09
2022-11-27T10:12:07.345Z,102059.25
2022-11-27T10:14:43.654Z,102062.44
2022-11-27T10:17:13.317Z,102052.50
2022-11-27T10:19:53.643Z,102044.66
2022-11-27T10:22:25.648Z,102045.66
2022-11-27T10:25:00.916Z,102039.88
2022-11-27T10:27:33.060Z,102042.09
2022-11-27T10:30:04.983Z,102041.72
2022-11-27T10:35:24.464Z,102036.31
2022-11-27T10:37:55.632Z,102021.00
2022-11-27T10:40:25.672Z,102036.31
2022-11-27T10:42:57.977Z,102029.34
2022-11-27T10:45:30.545Z,102021.13
2022-11-27T10:47:58.381Z,102012.97
2022-11-27T10:50:26.294Z,102016.00
2022-11-27T10:52:55.064Z,102013.38
2022-11-27T10:55:29.555Z,102003.25
2022-11-27T10:58:04.514Z,102000.56
2022-11-27T11:00:33.727Z,101990.56
2022-11-27T11:03:02.145Z,101984.94
2022-11-27T11:05:41.404Z,101987.06
2022-11-27T11:08:18.964Z,101983.84
2022-11-27T11:10:52.463Z,101983.38
2022-11-27T11:13:21.213Z,101969.97
2022-11-27T11:15:54.987Z,101969.31
2022-11-27T11:18:23.938Z,101961.69
2022-11-27T11:20:52.869Z,101958.09
2022-11-27T11:23:26.783Z,101957.00
2022-11-27T11:25:56.633Z,101960.69
2022-11-27T11:28:24.960Z,101945.53
2022-11-27T11:30:59.392Z,101939.25
2022-11-27T11:33:28.317Z,101945.75
2022-11-27T11:36:09.598Z,101937.50
2022-11-27T11:38:38.248Z,101933.78
2022-11-27T11:41:07.282Z,101929.34
2022-11-27T11:43:36.525Z,101935.66
2022-11-27T11:46:08.633Z,101935.50
2022-11-27T11:48:36.852Z,101927.53
2022-11-27T11:51:09.284Z,101914.81
2022-11-27T11:53:38.166Z,101912.47
2022-11-27T11:56:09.691Z,101904.81
2022-11-27T11:58:41.913Z,101907.66
2022-11-27T12:01:26.798Z,101906.03
2022-11-27T12:04:03.271Z,101900.28
2022-11-27T12:06:37.925Z,101899.78
2022-11-27T12:09:23.507Z,101890.28
2022-11-27T12:11:57.295Z,101886.47
2022-11-27T12:14:30.902Z,101883.25
2022-11-27T12:17:07.183Z,101882.16
2022-11-27T12:19:53.989Z,101866.72
2022-11-27T12:22:27.113Z,101868.72
2022-11-27T12:25:00.810Z,101872.28
2022-11-27T12:27:35.713Z,101867.59
2022-11-27T12:30:10.429Z,101861.19
2022-11-27T12:33:04.127Z,101846.88
2022-11-27T12:35:33.737Z,101841.59
2022-11-27T12:38:17.261Z,101839.38
2022-11-27T12:40:57.767Z,101832.72
2022-11-27T12:43:26.525Z,101825.94
2022-11-27T12:45:57.818Z,101824.09
2022-11-27T12:48:29.163Z,101820.25
2022-11-27T12:50:59.737Z,101810.88
2022-11-27T12:53:30.983Z,101806.56
2022-11-27T12:56:02.217Z,101802.59
2022-11-27T12:58:33.016Z,101792.63
2022-11-27T13:01:04.722Z,101788.69
2022-11-27T13:03:38.748Z,101794.00
2022-11-27T13:06:09.587Z,101787.47
2022-11-27T13:08:46.101Z,101789.91
2022-11-27T13:11:18.064Z,101781.06
2022-11-27T13:13:47.948Z,101777.72
2022-11-27T13:16:20.231Z,101767.84
2022-11-27T13:18:51.490Z,101768.72
2022-11-27T13:21:23.860Z,101769.31
2022-11-27T13:23:51.905Z,101775.09
2022-11-27T13:26:26.493Z,101765.38
2022-11-27T13:28:56.811Z,101757.47
2022-11-27T13:31:25.907Z,101750.78
2022-11-27T13:33:59.177Z,101760.31
2022-11-27T13:36:32.126Z,101757.88
2022-11-27T13:39:03.456Z,101762.22
2022-11-27T13:41:33.356Z,101764.28
2022-11-27T13:44:01.687Z,101774.53
2022-11-27T13:46:31.066Z,101770.59
2022-11-27T13:49:03.295Z,101758.13
2022-11-27T13:51:32.756Z,101761.59
2022-11-27T13:54:11.187Z,101767.16
2022-11-27T13:56:39.547Z,101758.31
2022-11-27T13:59:14.531Z,101750.66
2022-11-27T14:01:53.859Z,101756.53
2022-11-27T14:04:23.069Z,101754.94
2022-11-27T14:06:56.575Z,101735.47
2022-11-27T14:09:33.417Z,101733.72
2022-11-27T14:12:01.295Z,101729.25
2022-11-27T14:14:29.707Z,101742.31
2022-11-27T14:16:58.696Z,101723.03
2022-11-27T14:19:34.519Z,101716.31
2022-11-27T14:22:02.865Z,101711.50
2022-11-27T14:24:41.021Z,101709.91
2022-11-27T14:27:16.016Z,101708.50
2022-11-27T14:29:43.779Z,101703.44
2022-11-27T14:32:12.792Z,101695.22
2022-11-27T14:34:42.518Z,101697.06
2022-11-27T14:37:21.311Z,101676.00
2022-11-27T14:39:49.060Z,101687.94
2022-11-27T14:42:28.223Z,101677.44
2022-11-27T14:45:05.540Z,101672.91
2022-11-27T14:47:34.177Z,101671.31
2022-11-27T14:50:04.570Z,101671.56
2022-11-27T14:52:32.654Z,101668.19
2022-11-27T14:55:02.046Z,101663.25
2022-11-27T14:57:31.110Z,101672.25
2022-11-27T15:00:02.321Z,101667.13
2022-11-27T15:02:32.189Z,101669.34
2022-11-27T15:05:06.640Z,101663.88
2022-11-27T15:07:44.044Z,101658.56
2022-11-27T15:10:21.396Z,101656.78
2022-11-27T15:12:49.528Z,101648.13
2022-11-27T15:15:21.129Z,101641.38
2022-11-27T15:17:50.927Z,101636.28
2022-11-27T15:20:23.311Z,101639.06
2022-11-27T15:22:51.616Z,101629.94
2022-11-27T15:25:30.513Z,101632.09
2022-11-27T15:27:58.359Z,101623.09
2022-11-27T15:30:26.422Z,101613.84
2022-11-27T15:32:55.829Z,101620.25
2022-11-27T15:35:26.980Z,101615.28
2022-11-27T15:37:55.843Z,101614.50
2022-11-27T15:40:26.333Z,101611.84
2022-11-27T15:42:54.092Z,101614.50
2022-11-27T15:45:22.270Z,101602.63
2022-11-27T15:47:50.141Z,101606.19
2022-11-27T15:50:18.296Z,101608.31
2022-11-27T15:52:48.339Z,101603.03
2022-11-27T15:55:16.703Z,101604.56
2022-11-27T15:57:44.467Z,101610.59
2022-11-27T16:00:13.169Z,101609.78
2022-11-27T16:02:41.226Z,101608.41
2022-11-27T16:05:09.519Z,101613.91
2022-11-27T16:07:37.325Z,101612.78
2022-11-27T16:10:07.507Z,101609.66
2022-11-27T16:12:35.763Z,101608.88
2022-11-27T16:15:03.960Z,101609.19
2022-11-27T16:17:32.119Z,101603.38
2022-11-27T16:19:59.873Z,101600.66
2022-11-27T16:22:28.505Z,101592.50
2022-11-27T16:24:56.623Z,101589.53
2022-11-27T16:27:28.994Z,101585.28
2022-11-27T16:29:57.256Z,101584.84
2022-11-27T16:32:25.542Z,101575.72
2022-11-27T16:34:53.511Z,101584.16
2022-11-27T16:37:23.708Z,101576.06
2022-11-27T16:39:51.828Z,101566.81
2022-11-27T16:42:19.559Z,101564.88
2022-11-27T16:44:48.700Z,101563.63
2022-11-27T16:47:16.497Z,101558.03
2022-11-27T16:49:44.352Z,101552.41
2022-11-27T16:52:12.170Z,101552.25
2022-11-27T16:54:40.272Z,101540.69
2022-11-27T16:57:08.706Z,101540.13
2022-11-27T16:59:38.320Z,101540.59
2022-11-27T17:02:07.899Z,101534.31
2022-11-27T17:04:36.557Z,101533.75
2022-11-27T17:07:04.631Z,101523.06
2022-11-27T17:09:32.427Z,101515.50
2022-11-27T17:12:00.159Z,101517.06
2022-11-27T17:14:28.570Z,101519.28
2022-11-27T17:16:56.433Z,101517.31
2022-11-27T17:19:27.118Z,101512.19
2022-11-27T17:21:55.316Z,101508.38
2022-11-27T17:26:42.570Z,101512.28
2022-11-27T17:29:10.741Z,101499.88
2022-11-27T17:31:39.861Z,101502.72
2022-11-27T17:34:09.102Z,101497.03
2022-11-27T17:36:37.660Z,101497.59
2022-11-27T17:39:07.413Z,101492.03
2022-11-27T17:41:35.854Z,101496.22
2022-11-27T17:44:06.408Z,101489.91
2022-11-27T17:46:36.347Z,101487.63
2022-11-27T17:49:07.751Z,101475.78
2022-11-27T17:51:36.844Z,101480.53
2022-11-27T17:54:06.097Z,101475.50
2022-11-27T17:56:35.861Z,101481.22
2022-11-27T17:59:05.753Z,101472.50
2022-11-27T18:01:34.759Z,101464.34
2022-11-27T18:04:05.485Z,101471.22
2022-11-27T18:06:35.973Z,101467.34
2022-11-27T18:09:04.219Z,101470.53
2022-11-27T18:11:34.733Z,101470.09
2022-11-27T18:14:03.617Z,101456.94
2022-11-27T18:16:35.273Z,101460.78
2022-11-27T18:19:06.123Z,101460.66
2022-11-27T18:21:34.431Z,101448.94
2022-11-27T18:29:41.418Z,101445.34
2022-11-27T18:32:11.939Z,101439.47
2022-11-27T18:34:40.649Z,101439.47
2022-11-27T18:37:09.445Z,101441.19
2022-11-27T18:39:39.698Z,101430.91
2022-11-27T18:42:08.550Z,101429.91
2022-11-27T18:44:44.348Z,101432.31
2022-11-27T18:47:14.515Z,101434.06
2022-11-27T18:49:44.316Z,101427.91
2022-11-27T18:52:13.679Z,101423.78
2022-11-27T18:54:41.899Z,101413.78
2022-11-27T18:57:11.274Z,101409.75
2022-11-27T18:59:40.347Z,101416.06
2022-11-27T19:02:09.257Z,101411.78
2022-11-27T19:04:39.395Z,101411.06
2022-11-27T19:07:07.932Z,101413.50
2022-11-27T19:09:36.060Z,101413.91
2022-11-27T19:12:05.286Z,101415.19
2022-11-27T19:14:34.618Z,101413.63
2022-11-27T19:17:02.591Z,101415.91
2022-11-27T19:22:22.466Z,101402.63
2022-11-27T19:24:50.442Z,101406.75
2022-11-27T19:27:19.092Z,101411.06
2022-11-27T19:29:47.055Z,101400.91
2022-11-27T19:32:15.056Z,101393.91
2022-11-27T19:34:43.505Z,101392.88
2022-11-27T19:37:11.616Z,101389.34
2022-11-27T19:39:41.549Z,101389.19
2022-11-27T19:42:09.920Z,101384.78
2022-11-27T19:44:38.891Z,101373.75
2022-11-27T19:47:09.428Z,101383.47
2022-11-27T19:49:37.625Z,101375.47
2022-11-27T19:52:05.976Z,101373.47
2022-11-27T19:54:34.691Z,101373.16
2022-11-27T19:57:05.480Z,101366.00
2022-11-27T19:59:35.819Z,101363.16
2022-11-27T20:02:03.968Z,101361.88
2022-11-27T20:04:32.519Z,101348.44
2022-11-27T20:07:01.371Z,101358.03
2022-11-27T20:09:29.606Z,101353.03
2022-11-27T20:11:57.639Z,101346.44
2022-11-27T20:14:27.423Z,101344.16
2022-11-27T20:16:55.511Z,101332.19
2022-11-27T20:19:24.090Z,101333.88
2022-11-27T20:21:52.410Z,101333.16
2022-11-27T20:24:20.768Z,101334.00
2022-11-27T20:26:50.359Z,101323.84
2022-11-27T20:29:19.669Z,101332.00
2022-11-27T20:31:50.026Z,101319.13
2022-11-27T20:34:21.534Z,101325.00
2022-11-27T20:36:50.573Z,101311.13
2022-11-27T20:39:21.976Z,101310.00
2022-11-27T20:41:52.324Z,101313.28
2022-11-27T20:44:22.314Z,101312.56
2022-11-27T20:46:52.337Z,101308.84
2022-11-27T20:49:21.617Z,101302.56
2022-11-27T20:51:50.649Z,101302.56
2022-11-27T20:54:21.604Z,101296.72
2022-11-27T20:56:51.313Z,101289.97
2022-11-27T20:59:19.879Z,101291.41
2022-11-27T21:01:48.689Z,101288.41
2022-11-27T21:04:24.651Z,101278.53
2022-11-27T21:06:54.006Z,101277.09
2022-11-27T21:09:22.487Z,101270.69
2022-11-27T21:11:50.828Z,101265.81
2022-11-27T21:14:19.865Z,101262.81
2022-11-27T21:16:49.848Z,101266.22
2022-11-27T21:19:20.854Z,101263.81
2022-11-27T21:21:52.988Z,101265.94
2022-11-27T21:24:24.401Z,101261.09
2022-11-27T21:26:52.590Z,101263.69
2022-11-27T21:29:25.308Z,101248.81
2022-11-27T21:31:55.346Z,101235.66
2022-11-27T21:34:24.202Z,101242.53
2022-11-27T21:36:54.193Z,101231.38
2022-11-27T21:39:23.776Z,101229.22
2022-11-27T21:41:53.821Z,101226.50
2022-11-27T21:44:22.641Z,101225.53
2022-11-27T21:46:51.608Z,101224.09
2022-11-27T21:49:21.166Z,101215.22
2022-11-27T21:51:53.780Z,101215.66
2022-11-27T21:54:26.096Z,101215.69
2022-11-27T21:56:54.223Z,101204.53
2022-11-27T21:59:22.534Z,101204.53
2022-11-27T22:01:50.643Z,101203.94
2022-11-27T22:04:18.920Z,101198.81
2022-11-27T22:06:47.100Z,101198.81
2022-11-27T22:09:16.537Z,101189.81
2022-11-27T22:11:45.741Z,101191.50
2022-11-27T22:14:15.901Z,101186.53
2022-11-27T22:16:46.425Z,101188.25
2022-11-27T22:19:16.836Z,101179.81
2022-11-27T22:21:45.501Z,101173.25
2022-11-27T22:24:18.801Z,101175.25
2022-11-27T22:26:53.765Z,101168.69
2022-11-27T22:29:21.926Z,101161.22
2022-11-27T22:31:49.860Z,101165.22
2022-11-27T22:34:18.039Z,101162.06
2022-11-27T22:36:47.053Z,101167.09
2022-11-27T22:39:15.117Z,101156.50
2022-11-27T22:41:43.994Z,101158.81
2022-11-27T22:44:17.303Z,101162.66
2022-11-27T22:46:46.017Z,101158.09
2022-11-27T22:49:16.473Z,101155.41
2022-11-27T22:51:45.415Z,101157.81
2022-11-27T22:54:17.101Z,101156.50
2022-11-27T22:56:46.598Z,101154.38
2022-11-27T22:59:34.174Z,101153.97
2022-11-27T23:02:05.852Z,101154.94
2022-11-27T23:04:34.268Z,101152.25
2022-11-27T23:07:04.094Z,101146.13
2022-11-27T23:09:32.498Z,101139.97
2022-11-27T23:12:00.500Z,101141.81
2022-11-27T23:14:29.785Z,101137.69
2022-11-27T23:16:58.086Z,101138.41
2022-11-27T23:19:26.414Z,101128.81
2022-11-27T23:21:54.378Z,101127.38
2022-11-27T23:24:22.243Z,101116.53
2022-11-27T23:26:50.332Z,101113.69
2022-11-27T23:29:18.305Z,101107.56
2022-11-27T23:31:47.680Z,101102.69
2022-11-27T23:34:16.437Z,101107.38
2022-11-27T23:36:44.807Z,101102.81
2022-11-27T23:39:14.532Z,101094.84
2022-11-27T23:41:43.523Z,101088.81
2022-11-27T23:44:12.019Z,101085.56
2022-11-27T23:46:39.951Z,101080.97
2022-11-27T23:49:09.315Z,101084.81
2022-11-27T23:51:37.716Z,101080.06
2022-11-27T23:54:09.762Z,101082.22
2022-11-27T23:56:39.374Z,101077.66
2022-11-27T23:59:07.955Z,101067.81
